Time;durP1;ratioP1;P1;durP2;ratioP2;P2;SDS_P1;SDS_P2;PMS_P1;PMS_P2;Temp;Humidity;BMP_temperature;BMP_pressure;BME280_temperature;BME280_humidity;BME280_pressure;Samples;Min_cycle;Max_cycle;Signal;HPM_P1;HPM_P2
2021/09/01 00:00:40;;;;;;;5.45;2.65;;;;;;;;;;5071037;28;20042;-67
2021/09/01 00:03:06;;;;;;;4.93;2.53;;;;;;;;;;5069336;28;20474;-67
2021/09/01 00:05:32;;;;;;;5.15;2.85;;;;;;;;;;5070200;28;20028;-67
2021/09/01 00:08:24;;;;;;;5.70;3.03;;;;;;;;;;5111443;27;20306;-68
2021/09/01 00:11:35;;;;;;;4.88;2.85;;;;;;;;;;5070800;28;20422;-68
2021/09/01 00:14:01;;;;;;;5.80;2.60;;;;;;;;;;5070710;28;20035;-68
2021/09/01 00:18:30;;;;;;;4.60;2.58;;;;;;;;;;5070419;28;20423;-68
2021/09/01 00:20:56;;;;;;;5.90;2.78;;;;;;;;;;5070974;28;20492;-68
2021/09/01 00:23:22;;;;;;;6.00;2.42;;;;;;;;;;5070855;28;20028;-68
2021/09/01 00:25:48;;;;;;;7.18;3.28;;;;;;;;;;5070253;28;20028;-68
2021/09/01 00:28:15;;;;;;;4.95;2.55;;;;;;;;;;5071028;28;20071;-68
2021/09/01 00:30:41;;;;;;;6.53;3.15;;;;;;;;;;5070810;28;20025;-68
2021/09/01 00:33:07;;;;;;;7.68;2.70;;;;;;;;;;5070066;28;20424;-68
2021/09/01 00:35:33;;;;;;;4.85;2.70;;;;;;;;;;5070478;28;20497;-68
2021/09/01 00:37:59;;;;;;;5.80;2.85;;;;;;;;;;5070483;28;20040;-68
2021/09/01 00:40:59;;;;;;;4.45;2.17;;;;;;;;;;5070551;28;20398;-67
2021/09/01 00:43:26;;;;;;;4.80;3.25;;;;;;;;;;5069466;28;20106;-67
2021/09/01 00:48:06;;;;;;;4.63;2.22;;;;;;;;;;5070342;28;20395;-67
2021/09/01 00:50:32;;;;;;;4.50;2.08;;;;;;;;;;5070749;28;20033;-66
2021/09/01 00:58:34;;;;;;;4.75;2.40;;;;;;;;;;5092296;27;20428;-67
2021/09/01 01:01:16;;;;;;;7.50;2.60;;;;;;;;;;5106351;28;20408;-67
2021/09/01 01:03:46;;;;;;;5.32;2.65;;;;;;;;;;5091516;28;20016;-67
2021/09/01 01:06:12;;;;;;;5.43;2.28;;;;;;;;;;5090881;28;20048;-67
2021/09/01 01:08:39;;;;;;;4.03;2.08;;;;;;;;;;5090385;28;20043;-67
2021/09/01 01:11:10;;;;;;;5.95;2.38;;;;;;;;;;5090972;28;20427;-67
2021/09/01 01:13:36;;;;;;;5.68;2.60;;;;;;;;;;5090614;28;20024;-67
2021/09/01 01:16:02;;;;;;;5.53;2.78;;;;;;;;;;5088878;28;20107;-67
2021/09/01 01:18:29;;;;;;;4.38;2.85;;;;;;;;;;5090858;28;20107;-67
2021/09/01 01:20:55;;;;;;;4.05;2.30;;;;;;;;;;5090625;28;20024;-68
2021/09/01 01:23:25;;;;;;;3.42;2.10;;;;;;;;;;5090229;28;20104;-67
2021/09/01 01:25:51;;;;;;;4.22;2.15;;;;;;;;;;5090534;28;20471;-67
2021/09/01 01:30:11;;;;;;;4.45;2.50;;;;;;;;;;5111048;27;20470;-68
2021/09/01 01:32:58;;;;;;;5.25;2.42;;;;;;;;;;5111475;27;20411;-67
2021/09/01 01:35:27;;;;;;;4.10;2.35;;;;;;;;;;5111303;28;20028;-67
2021/09/01 01:38:56;;;;;;;6.35;2.38;;;;;;;;;;5111452;27;20416;-68
2021/09/01 01:41:22;;;;;;;8.80;2.65;;;;;;;;;;5111294;28;20027;-69
2021/09/01 01:43:49;;;;;;;3.50;2.10;;;;;;;;;;5109752;28;20238;-68
2021/09/01 01:46:15;;;;;;;4.40;2.30;;;;;;;;;;5109935;28;20023;-68
2021/09/01 01:48:42;;;;;;;4.00;2.40;;;;;;;;;;5111476;28;20491;-67
2021/09/01 01:51:08;;;;;;;6.38;2.20;;;;;;;;;;5110686;28;20028;-68
2021/09/01 01:53:34;;;;;;;5.10;2.45;;;;;;;;;;5111218;28;20020;-68
2021/09/01 01:56:00;;;;;;;5.40;2.60;;;;;;;;;;5111183;28;20023;-68
2021/09/01 02:00:14;;;;;;;4.80;2.35;;;;;;;;;;5111303;27;20385;-67
2021/09/01 02:02:41;;;;;;;7.18;2.83;;;;;;;;;;5111407;28;20028;-68
2021/09/01 02:05:07;;;;;;;5.47;2.45;;;;;;;;;;5110854;28;20020;-68
2021/09/01 02:07:33;;;;;;;4.93;2.42;;;;;;;;;;5109760;28;20071;-68
2021/09/01 02:09:59;;;;;;;5.47;2.50;;;;;;;;;;5111448;28;20058;-68
2021/09/01 02:12:29;;;;;;;6.53;2.60;;;;;;;;;;5110711;28;20019;-68
2021/09/01 02:16:05;;;;;;;6.40;2.90;;;;;;;;;;5111776;27;20416;-67
2021/09/01 02:18:31;;;;;;;5.47;2.95;;;;;;;;;;5126703;28;20030;-67
2021/09/01 02:22:17;;;;;;;5.68;2.63;;;;;;;;;;5111614;27;20392;-67
2021/09/01 02:24:43;;;;;;;3.67;2.28;;;;;;;;;;5111351;28;20488;-68
2021/09/01 02:27:10;;;;;;;4.90;2.72;;;;;;;;;;5110794;28;20032;-68
2021/09/01 02:29:36;;;;;;;4.82;2.55;;;;;;;;;;5111176;28;20070;-68
2021/09/01 02:32:02;;;;;;;4.82;2.70;;;;;;;;;;5109475;28;20047;-68
2021/09/01 02:36:24;;;;;;;3.88;2.20;;;;;;;;;;5111293;27;20421;-67
2021/09/01 02:38:50;;;;;;;4.78;2.72;;;;;;;;;;5111356;28;20024;-67
2021/09/01 02:41:17;;;;;;;7.97;3.50;;;;;;;;;;5110773;28;20024;-67
2021/09/01 02:43:43;;;;;;;6.45;3.30;;;;;;;;;;5111342;28;20061;-68
2021/09/01 02:46:09;;;;;;;5.53;3.17;;;;;;;;;;5109437;28;20026;-67
2021/09/01 02:48:35;;;;;;;5.72;2.50;;;;;;;;;;5111127;28;20023;-67
2021/09/01 02:52:18;;;;;;;5.63;2.70;;;;;;;;;;5071400;28;20391;-67
2021/09/01 02:54:45;;;;;;;4.15;2.80;;;;;;;;;;5069082;28;20125;-67
2021/09/01 02:57:11;;;;;;;5.32;2.72;;;;;;;;;;5069363;28;20534;-67
2021/09/01 02:59:37;;;;;;;5.68;2.40;;;;;;;;;;5070667;28;20040;-67
2021/09/01 03:02:28;;;;;;;8.13;3.40;;;;;;;;;;5070607;28;20387;-69
2021/09/01 03:14:48;;;;;;;4.00;2.70;;;;;;;;;;5111031;27;20993;-68
2021/09/01 03:18:33;;;;;;;4.55;2.90;;;;;;;;;;5070696;28;20391;-67
2021/09/01 03:20:59;;;;;;;5.63;3.08;;;;;;;;;;5070705;28;20021;-69
2021/09/01 03:23:25;;;;;;;7.38;2.95;;;;;;;;;;5070233;28;20481;-69
2021/09/01 03:25:51;;;;;;;5.28;2.95;;;;;;;;;;5070574;28;20063;-67
2021/09/01 03:28:30;;;;;;;7.50;2.88;;;;;;;;;;5111576;27;20418;-67
2021/09/01 03:30:56;;;;;;;4.10;2.75;;;;;;;;;;5111178;28;20429;-67
2021/09/01 03:33:50;;;;;;;6.75;3.08;;;;;;;;;;5112051;27;20385;-68
2021/09/01 03:38:52;;;;;;;6.32;2.53;;;;;;;;;;5111544;27;20878;-68
2021/09/01 03:44:40;;;;;;;5.82;3.53;;;;;;;;;;5111062;27;20516;-69
2021/09/01 03:47:06;;;;;;;5.50;2.83;;;;;;;;;;5111265;28;20019;-69
2021/09/01 03:49:32;;;;;;;6.82;3.10;;;;;;;;;;5110727;28;20020;-69
2021/09/01 03:51:58;;;;;;;6.07;3.30;;;;;;;;;;5109895;28;20050;-67
2021/09/01 03:54:25;;;;;;;5.50;3.15;;;;;;;;;;5111041;28;20024;-69
2021/09/01 03:56:51;;;;;;;7.30;3.67;;;;;;;;;;5110584;28;20360;-67
2021/09/01 04:00:37;;;;;;;6.47;2.80;;;;;;;;;;5111203;27;20512;-68
2021/09/01 04:03:03;;;;;;;6.10;3.50;;;;;;;;;;5109991;28;20028;-69
2021/09/01 04:07:10;;;;;;;6.32;3.45;;;;;;;;;;5112062;27;20408;-68
2021/09/01 04:10:30;;;;;;;5.50;3.22;;;;;;;;;;5111172;27;20397;-67
2021/09/01 04:12:57;;;;;;;7.90;3.00;;;;;;;;;;5109972;28;20016;-69
2021/09/01 04:15:23;;;;;;;6.47;3.17;;;;;;;;;;5111140;28;20038;-69
2021/09/01 04:18:50;;;;;;;5.53;3.08;;;;;;;;;;5111160;27;20449;-68
2021/09/01 04:22:57;;;;;;;5.32;2.97;;;;;;;;;;5111865;27;20416;-71
2021/09/01 04:28:00;;;;;;;6.80;3.00;;;;;;;;;;5112010;27;20469;-71
2021/09/01 04:30:26;;;;;;;4.80;2.85;;;;;;;;;;5127145;28;20459;-68
2021/09/01 04:33:51;;;;;;;6.28;3.38;;;;;;;;;;5110872;27;20761;-68
2021/09/01 04:36:18;;;;;;;4.88;3.10;;;;;;;;;;5111299;28;20464;-68
2021/09/01 04:39:30;;;;;;;5.45;2.85;;;;;;;;;;5111033;27;20458;-70
2021/09/01 04:41:56;;;;;;;9.15;3.15;;;;;;;;;;5109992;28;20034;-68
2021/09/01 04:44:23;;;;;;;4.88;3.00;;;;;;;;;;5109944;28;20031;-68
2021/09/01 04:48:13;;;;;;;5.43;3.10;;;;;;;;;;5111428;27;20424;-67
2021/09/01 04:50:39;;;;;;;6.80;3.33;;;;;;;;;;5111399;28;20031;-69
2021/09/01 04:53:45;;;;;;;6.10;3.10;;;;;;;;;;5111268;27;20509;-67
2021/09/01 04:56:11;;;;;;;6.65;2.83;;;;;;;;;;5111365;28;20024;-67
2021/09/01 04:58:38;;;;;;;5.18;3.05;;;;;;;;;;5109852;28;20028;-68
2021/09/01 05:01:04;;;;;;;6.93;3.15;;;;;;;;;;5111029;28;20024;-68
2021/09/01 05:03:30;;;;;;;4.80;2.80;;;;;;;;;;5111065;28;20028;-67
2021/09/01 05:05:56;;;;;;;7.13;3.22;;;;;;;;;;5108462;28;20035;-68
2021/09/01 05:08:22;;;;;;;6.18;2.95;;;;;;;;;;5107873;28;20020;-68
2021/09/01 05:11:42;;;;;;;6.65;2.97;;;;;;;;;;5088659;27;20406;-69
2021/09/01 05:16:12;;;;;;;5.93;3.10;;;;;;;;;;5108175;27;20473;-69
2021/09/01 05:18:38;;;;;;;5.90;2.88;;;;;;;;;;5108995;28;20035;-69
2021/09/01 05:21:05;;;;;;;8.75;3.00;;;;;;;;;;5124554;28;20126;-69
2021/09/01 05:23:33;;;;;;;4.60;2.80;;;;;;;;;;5124418;28;20032;-68
2021/09/01 05:26:00;;;;;;;4.05;2.78;;;;;;;;;;5126295;28;20028;-69
2021/09/01 05:28:27;;;;;;;4.72;3.00;;;;;;;;;;5125388;28;20023;-69
2021/09/01 05:30:54;;;;;;;4.50;2.70;;;;;;;;;;5125815;28;20027;-69
2021/09/01 05:36:44;;;;;;;6.30;3.45;;;;;;;;;;5068744;28;20391;-72
2021/09/01 05:39:10;;;;;;;4.10;2.67;;;;;;;;;;5066532;28;20108;-68
2021/09/01 05:44:56;;;;;;;7.28;3.17;;;;;;;;;;5110043;27;20800;-67
2021/09/01 05:47:23;;;;;;;5.55;3.13;;;;;;;;;;5109218;28;20388;-69
2021/09/01 05:49:50;;;;;;;7.03;2.88;;;;;;;;;;5108293;28;20073;-67
2021/09/01 05:52:17;;;;;;;5.35;2.75;;;;;;;;;;5109529;28;20024;-68
2021/09/01 05:56:34;;;;;;;6.20;3.03;;;;;;;;;;5151316;27;20420;-67
2021/09/01 05:59:07;;;;;;;5.03;2.72;;;;;;;;;;5150863;27;20030;-68
2021/09/01 06:01:38;;;;;;;6.22;3.03;;;;;;;;;;5152082;27;20500;-67
2021/09/01 06:04:06;;;;;;;4.35;2.75;;;;;;;;;;5150170;27;20026;-68
2021/09/01 06:06:32;;;;;;;3.55;2.25;;;;;;;;;;5150971;27;20029;-67
2021/09/01 06:08:59;;;;;;;12.85;3.17;;;;;;;;;;5151425;27;20023;-67
2021/09/01 06:11:27;;;;;;;4.38;2.42;;;;;;;;;;5150839;27;20135;-68
2021/09/01 06:14:52;;;;;;;3.60;2.13;;;;;;;;;;5109015;27;20404;-66
2021/09/01 06:17:19;;;;;;;5.07;2.38;;;;;;;;;;5109434;28;20024;-68
2021/09/01 06:19:45;;;;;;;5.53;2.60;;;;;;;;;;5109093;28;20016;-68
2021/09/01 06:23:07;;;;;;;4.60;2.35;;;;;;;;;;5128153;27;20116;-69
2021/09/01 06:25:34;;;;;;;5.53;2.10;;;;;;;;;;5103985;28;20024;-72
2021/09/01 06:28:00;;;;;;;2.63;1.88;;;;;;;;;;5089576;28;20035;-72
2021/09/01 06:32:01;;;;;;;4.18;2.35;;;;;;;;;;5069407;28;20453;-70
2021/09/01 06:34:27;;;;;;;6.75;2.63;;;;;;;;;;5066976;28;20481;-71
2021/09/01 06:36:53;;;;;;;4.38;2.30;;;;;;;;;;5067754;28;20033;-71
2021/09/01 06:39:20;;;;;;;5.45;2.47;;;;;;;;;;5063000;28;20380;-69
2021/09/01 06:41:46;;;;;;;8.38;2.30;;;;;;;;;;5067936;28;20059;-69
2021/09/01 06:44:12;;;;;;;4.75;1.77;;;;;;;;;;5068269;28;20480;-69
2021/09/01 06:46:40;;;;;;;6.05;2.13;;;;;;;;;;5069138;28;20370;-68
2021/09/01 06:49:06;;;;;;;7.93;2.17;;;;;;;;;;5069662;28;20040;-68
2021/09/01 06:53:30;;;;;;;4.20;2.03;;;;;;;;;;5105911;27;21001;-69
2021/09/01 06:55:56;;;;;;;5.05;2.20;;;;;;;;;;5107421;28;20077;-68
2021/09/01 06:58:22;;;;;;;3.42;1.60;;;;;;;;;;5104843;28;20056;-69
2021/09/01 07:00:48;;;;;;;3.08;1.52;;;;;;;;;;5105462;28;20104;-67
2021/09/01 07:03:15;;;;;;;2.85;1.40;;;;;;;;;;5123278;28;20426;-69
2021/09/01 07:05:41;;;;;;;4.68;1.55;;;;;;;;;;5129865;28;20069;-68
2021/09/01 07:08:16;;;;;;;2.53;1.58;;;;;;;;;;5130527;28;20054;-71
2021/09/01 07:10:43;;;;;;;2.05;1.25;;;;;;;;;;5130911;28;20051;-69
2021/09/01 07:13:10;;;;;;;4.10;1.85;;;;;;;;;;5131137;28;20035;-69
2021/09/01 07:15:36;;;;;;;2.80;1.58;;;;;;;;;;5130536;28;20081;-69
2021/09/01 07:18:02;;;;;;;5.28;1.77;;;;;;;;;;5099579;28;20471;-71
2021/09/01 07:20:28;;;;;;;12.63;1.92;;;;;;;;;;5087297;28;20499;-72
2021/09/01 07:22:55;;;;;;;3.92;1.77;;;;;;;;;;5092856;28;20136;-71
2021/09/01 07:25:21;;;;;;;1.67;1.38;;;;;;;;;;5089536;28;20024;-70
2021/09/01 07:27:47;;;;;;;2.67;1.40;;;;;;;;;;5087861;28;20038;-67
2021/09/01 07:30:13;;;;;;;3.35;1.60;;;;;;;;;;5092123;28;20024;-68
2021/09/01 07:32:40;;;;;;;2.80;1.83;;;;;;;;;;5096671;28;20093;-67
2021/09/01 07:35:06;;;;;;;3.00;1.65;;;;;;;;;;5087660;28;20031;-68
2021/09/01 07:37:33;;;;;;;5.60;1.45;;;;;;;;;;5089878;28;20023;-68
2021/09/01 07:39:59;;;;;;;2.80;1.45;;;;;;;;;;5089979;28;20077;-69
2021/09/01 07:42:25;;;;;;;4.47;1.77;;;;;;;;;;5090263;28;20024;-69
2021/09/01 07:44:51;;;;;;;4.00;1.77;;;;;;;;;;5087347;28;20644;-67
2021/09/01 07:47:56;;;;;;;2.50;1.40;;;;;;;;;;5079079;27;20501;-71
2021/09/01 07:50:23;;;;;;;3.40;1.70;;;;;;;;;;5076366;28;20056;-71
2021/09/01 07:53:42;;;;;;;4.35;1.95;;;;;;;;;;5095343;27;20714;-70
2021/09/01 07:58:05;;;;;;;5.00;1.90;;;;;;;;;;5088038;27;21263;-72
2021/09/01 08:00:32;;;;;;;5.00;1.92;;;;;;;;;;5095335;28;20032;-72
2021/09/01 08:02:58;;;;;;;4.22;1.70;;;;;;;;;;5092234;28;20020;-70
2021/09/01 08:06:39;;;;;;;3.95;1.70;;;;;;;;;;5079613;27;21226;-70
2021/09/01 08:09:05;;;;;;;1.88;1.23;;;;;;;;;;5077356;28;20040;-72
2021/09/01 08:11:32;;;;;;;2.83;1.58;;;;;;;;;;5079685;28;20051;-70
2021/09/01 08:13:58;;;;;;;2.20;1.40;;;;;;;;;;5082377;28;20571;-70
2021/09/01 08:20:28;;;;;;;4.45;2.15;;;;;;;;;;5027191;28;20436;-70
2021/09/01 08:22:55;;;;;;;2.60;1.70;;;;;;;;;;5034108;28;20083;-70
2021/09/01 08:25:21;;;;;;;6.20;2.10;;;;;;;;;;5047156;28;20077;-70
2021/09/01 08:28:12;;;;;;;4.50;2.25;;;;;;;;;;5109926;27;20385;-70
2021/09/01 08:30:38;;;;;;;4.53;1.88;;;;;;;;;;5110342;28;20030;-73
2021/09/01 08:33:04;;;;;;;3.17;1.80;;;;;;;;;;5110464;28;20100;-73
2021/09/01 08:35:30;;;;;;;3.80;2.00;;;;;;;;;;5109523;28;20063;-70
2021/09/01 08:40:01;;;;;;;4.40;1.73;;;;;;;;;;5069026;28;20391;-67
2021/09/01 08:42:28;;;;;;;1.98;1.50;;;;;;;;;;5065534;28;20029;-70
2021/09/01 08:44:54;;;;;;;4.10;1.70;;;;;;;;;;5068466;28;20025;-69
2021/09/01 08:47:21;;;;;;;5.63;1.55;;;;;;;;;;5070126;28;20028;-69
2021/09/01 08:49:47;;;;;;;3.58;1.63;;;;;;;;;;5058700;28;20026;-69
2021/09/01 08:52:14;;;;;;;2.30;1.30;;;;;;;;;;5049793;28;20029;-70
2021/09/01 08:54:40;;;;;;;3.50;1.58;;;;;;;;;;5065089;28;20057;-68
2021/09/01 08:57:06;;;;;;;3.15;1.40;;;;;;;;;;5069067;28;20020;-69
2021/09/01 08:59:32;;;;;;;4.07;2.35;;;;;;;;;;5069652;28;20496;-68
2021/09/01 09:01:58;;;;;;;5.93;1.98;;;;;;;;;;5069896;28;20029;-70
2021/09/01 09:04:26;;;;;;;4.00;2.30;;;;;;;;;;5055738;28;20786;-72
2021/09/01 09:06:54;;;;;;;3.78;2.13;;;;;;;;;;5048844;28;20116;-71
2021/09/01 09:09:24;;;;;;;2.35;1.58;;;;;;;;;;5049011;28;20035;-70
2021/09/01 09:11:51;;;;;;;3.63;1.70;;;;;;;;;;5068574;28;20029;-70
2021/09/01 09:14:24;;;;;;;3.58;1.90;;;;;;;;;;5065813;28;20024;-68
2021/09/01 09:17:01;;;;;;;2.60;1.50;;;;;;;;;;5069702;28;20600;-70
2021/09/01 09:20:28;;;;;;;3.70;2.05;;;;;;;;;;5110349;27;20871;-69
2021/09/01 09:22:54;;;;;;;2.22;1.60;;;;;;;;;;5109379;28;20433;-70
2021/09/01 09:25:23;;;;;;;2.85;1.70;;;;;;;;;;5109246;28;20042;-71
2021/09/01 09:27:54;;;;;;;2.35;1.40;;;;;;;;;;5110316;28;20016;-70
2021/09/01 09:30:20;;;;;;;2.45;1.73;;;;;;;;;;5110331;28;20015;-71
2021/09/01 09:32:58;;;;;;;2.72;1.73;;;;;;;;;;5110605;28;20028;-71
2021/09/01 09:35:46;;;;;;;2.47;1.60;;;;;;;;;;5110142;28;20024;-71
2021/09/01 09:38:12;;;;;;;2.95;1.40;;;;;;;;;;5110479;28;20115;-70
2021/09/01 09:40:39;;;;;;;3.70;1.75;;;;;;;;;;5110736;28;20028;-71
2021/09/01 09:43:16;;;;;;;3.38;1.67;;;;;;;;;;5110252;28;20095;-69
2021/09/01 09:45:42;;;;;;;2.60;1.73;;;;;;;;;;5110650;28;20024;-70
2021/09/01 09:48:08;;;;;;;5.53;2.47;;;;;;;;;;5110057;28;20043;-72
2021/09/01 09:50:35;;;;;;;4.05;2.22;;;;;;;;;;5110739;28;20028;-72
2021/09/01 09:53:01;;;;;;;3.63;2.00;;;;;;;;;;5110682;28;20027;-70
2021/09/01 09:55:27;;;;;;;4.63;1.90;;;;;;;;;;5109326;28;20031;-70
2021/09/01 09:57:55;;;;;;;6.47;2.17;;;;;;;;;;5110487;28;20020;-72
2021/09/01 10:00:22;;;;;;;3.20;1.77;;;;;;;;;;5110301;28;20042;-70
2021/09/01 10:02:48;;;;;;;3.90;1.95;;;;;;;;;;5110064;28;20020;-71
2021/09/01 10:05:27;;;;;;;2.38;1.83;;;;;;;;;;5108942;28;20049;-72
2021/09/01 10:07:56;;;;;;;6.95;2.10;;;;;;;;;;5110642;28;20022;-72
2021/09/01 10:10:22;;;;;;;2.67;1.90;;;;;;;;;;5109868;28;20087;-71
2021/09/01 10:12:49;;;;;;;3.65;1.98;;;;;;;;;;5110230;28;20038;-71
2021/09/01 10:15:17;;;;;;;3.05;1.85;;;;;;;;;;5109898;28;20579;-71
2021/09/01 10:17:44;;;;;;;4.95;2.20;;;;;;;;;;5109567;28;20028;-70
2021/09/01 10:20:14;;;;;;;2.83;1.67;;;;;;;;;;5111007;28;20165;-70
2021/09/01 10:22:40;;;;;;;2.80;1.88;;;;;;;;;;5104702;28;20023;-70
2021/09/01 10:25:07;;;;;;;3.30;1.98;;;;;;;;;;5107836;28;20024;-68
2021/09/01 10:27:33;;;;;;;3.15;2.00;;;;;;;;;;5098621;28;20025;-69
2021/09/01 10:30:09;;;;;;;3.58;1.88;;;;;;;;;;5098419;28;20013;-69
2021/09/01 10:32:42;;;;;;;4.40;1.88;;;;;;;;;;5094146;28;20032;-71
2021/09/01 10:35:17;;;;;;;3.95;1.80;;;;;;;;;;5094454;28;20020;-71
2021/09/01 10:37:49;;;;;;;4.03;1.88;;;;;;;;;;5095505;28;20024;-70
2021/09/01 10:40:22;;;;;;;4.43;2.10;;;;;;;;;;5095859;28;20081;-71
2021/09/01 10:42:49;;;;;;;5.00;2.05;;;;;;;;;;5095754;28;20024;-68
2021/09/01 10:45:15;;;;;;;5.18;2.25;;;;;;;;;;5095135;28;20530;-67
2021/09/01 10:47:53;;;;;;;2.92;1.77;;;;;;;;;;5094683;28;20429;-68
2021/09/01 10:50:31;;;;;;;3.85;1.95;;;;;;;;;;5094926;28;20020;-68
2021/09/01 10:53:07;;;;;;;4.82;1.80;;;;;;;;;;5086709;28;20032;-68
2021/09/01 10:55:45;;;;;;;3.28;2.00;;;;;;;;;;5080377;28;20091;-67
2021/09/01 10:58:23;;;;;;;3.42;2.22;;;;;;;;;;5075321;28;20477;-67
2021/09/01 11:01:00;;;;;;;8.25;2.85;;;;;;;;;;5074163;28;20389;-69
2021/09/01 11:03:46;;;;;;;4.13;2.10;;;;;;;;;;5074690;28;20036;-67
2021/09/01 11:06:13;;;;;;;3.33;2.00;;;;;;;;;;5077331;28;20058;-69
2021/09/01 11:08:54;;;;;;;3.28;2.17;;;;;;;;;;5081988;28;20481;-67
2021/09/01 11:11:20;;;;;;;4.47;2.45;;;;;;;;;;5074761;28;20024;-70
2021/09/01 11:13:46;;;;;;;2.95;1.90;;;;;;;;;;5073347;28;20028;-68
2021/09/01 11:16:22;;;;;;;4.03;2.28;;;;;;;;;;5074303;28;20532;-69
2021/09/01 11:18:59;;;;;;;4.68;1.83;;;;;;;;;;5071362;28;20119;-69
2021/09/01 11:21:25;;;;;;;3.22;2.00;;;;;;;;;;5072470;28;20035;-70
2021/09/01 11:23:51;;;;;;;6.70;2.28;;;;;;;;;;5072785;28;20120;-68
2021/09/01 11:26:17;;;;;;;2.92;1.63;;;;;;;;;;5072064;28;20021;-69
2021/09/01 11:28:48;;;;;;;2.88;1.55;;;;;;;;;;5071876;28;20024;-70
2021/09/01 11:31:21;;;;;;;2.80;1.70;;;;;;;;;;5073584;28;20481;-71
2021/09/01 11:33:47;;;;;;;3.25;1.77;;;;;;;;;;5073380;28;20024;-70
2021/09/01 11:36:13;;;;;;;4.47;1.83;;;;;;;;;;5074453;28;20020;-69
2021/09/01 11:38:46;;;;;;;4.38;1.95;;;;;;;;;;5073033;28;20047;-69
2021/09/01 11:41:12;;;;;;;2.13;1.60;;;;;;;;;;5073669;28;20067;-69
2021/09/01 11:43:38;;;;;;;6.10;1.58;;;;;;;;;;5073700;28;20078;-71
2021/09/01 11:46:05;;;;;;;9.60;2.55;;;;;;;;;;5073269;28;20035;-69
2021/09/01 11:48:40;;;;;;;3.80;1.80;;;;;;;;;;5073748;28;20063;-67
2021/09/01 11:51:07;;;;;;;3.00;1.52;;;;;;;;;;5079176;28;20012;-67
2021/09/01 11:53:43;;;;;;;2.15;1.35;;;;;;;;;;5094307;28;20031;-66
2021/09/01 11:56:10;;;;;;;1.98;1.40;;;;;;;;;;5093083;28;20024;-67
2021/09/01 11:58:36;;;;;;;2.05;1.40;;;;;;;;;;5093854;28;20028;-67
2021/09/01 12:01:06;;;;;;;4.47;1.30;;;;;;;;;;5094295;28;20490;-67
2021/09/01 12:03:33;;;;;;;5.55;2.05;;;;;;;;;;5093968;28;20388;-67
2021/09/01 12:06:08;;;;;;;4.00;1.50;;;;;;;;;;5094197;28;20020;-67
2021/09/01 12:08:41;;;;;;;3.40;1.55;;;;;;;;;;5093535;28;20030;-68
2021/09/01 12:11:08;;;;;;;3.30;1.45;;;;;;;;;;5093483;28;20020;-66
2021/09/01 12:13:38;;;;;;;3.90;1.52;;;;;;;;;;5093745;28;20020;-66
2021/09/01 12:16:04;;;;;;;6.47;2.03;;;;;;;;;;5093281;28;20140;-66
2021/09/01 12:18:48;;;;;;;6.60;1.52;;;;;;;;;;5093295;28;20032;-66
2021/09/01 12:21:20;;;;;;;3.47;1.75;;;;;;;;;;5091239;28;20111;-66
2021/09/01 12:23:47;;;;;;;5.00;1.27;;;;;;;;;;5101104;28;20469;-66
2021/09/01 12:26:17;;;;;;;4.20;1.45;;;;;;;;;;5104232;28;20084;-66
2021/09/01 12:28:45;;;;;;;2.05;1.20;;;;;;;;;;5105279;28;20012;-66
2021/09/01 12:31:18;;;;;;;2.95;1.35;;;;;;;;;;5113602;28;20024;-65
2021/09/01 12:33:44;;;;;;;2.28;1.35;;;;;;;;;;5095860;28;20077;-68
2021/09/01 12:36:10;;;;;;;2.20;1.50;;;;;;;;;;5093123;28;20024;-66
2021/09/01 12:38:36;;;;;;;6.10;1.63;;;;;;;;;;5092586;28;20369;-65
2021/09/01 12:41:19;;;;;;;2.78;1.27;;;;;;;;;;5091469;28;20065;-66
2021/09/01 12:43:46;;;;;;;2.95;1.27;;;;;;;;;;5092272;28;20024;-66
2021/09/01 12:46:12;;;;;;;3.38;1.33;;;;;;;;;;5093097;28;20472;-65
2021/09/01 12:48:41;;;;;;;2.00;1.30;;;;;;;;;;5092858;28;20055;-66
2021/09/01 12:51:10;;;;;;;3.28;1.40;;;;;;;;;;5091643;28;20094;-66
2021/09/01 12:53:36;;;;;;;3.17;1.80;;;;;;;;;;5091807;28;20020;-65
2021/09/01 12:56:03;;;;;;;8.45;1.58;;;;;;;;;;5092289;28;20016;-66
2021/09/01 12:58:29;;;;;;;7.53;2.55;;;;;;;;;;5091227;28;20111;-66
2021/09/01 13:00:55;;;;;;;2.38;1.30;;;;;;;;;;5093121;28;20024;-65
2021/09/01 13:03:21;;;;;;;6.20;1.88;;;;;;;;;;5093226;28;20086;-66
2021/09/01 13:05:48;;;;;;;2.97;1.65;;;;;;;;;;5092860;28;20043;-66
2021/09/01 13:08:15;;;;;;;4.13;1.60;;;;;;;;;;5091889;28;20380;-66
2021/09/01 13:10:42;;;;;;;8.00;1.95;;;;;;;;;;5091727;28;20032;-67
2021/09/01 13:13:08;;;;;;;3.75;1.50;;;;;;;;;;5092934;28;20091;-66
2021/09/01 13:15:35;;;;;;;2.53;1.50;;;;;;;;;;5093110;28;20024;-67
2021/09/01 13:18:01;;;;;;;2.33;1.25;;;;;;;;;;5092590;28;20016;-67
2021/09/01 13:20:27;;;;;;;2.72;1.40;;;;;;;;;;5092779;28;20089;-68
2021/09/01 13:22:54;;;;;;;1.27;1.13;;;;;;;;;;5093068;28;20028;-67
2021/09/01 13:25:21;;;;;;;5.13;1.88;;;;;;;;;;5093165;28;20024;-69
2021/09/01 13:27:47;;;;;;;1.95;1.50;;;;;;;;;;5092715;28;20024;-68
2021/09/01 13:30:14;;;;;;;2.75;1.33;;;;;;;;;;5093023;28;20029;-68
2021/09/01 13:32:40;;;;;;;3.50;2.63;;;;;;;;;;5093061;28;20027;-67
2021/09/01 13:35:07;;;;;;;4.00;1.30;;;;;;;;;;5092686;28;20028;-68
2021/09/01 13:37:34;;;;;;;6.55;2.13;;;;;;;;;;5092836;28;20421;-67
2021/09/01 13:40:00;;;;;;;1.92;1.40;;;;;;;;;;5092475;28;20054;-68
2021/09/01 13:42:26;;;;;;;8.15;1.77;;;;;;;;;;5109778;28;20035;-68
2021/09/01 13:44:52;;;;;;;7.05;2.03;;;;;;;;;;5113382;28;20433;-67
2021/09/01 13:47:19;;;;;;;13.70;2.60;;;;;;;;;;5112865;28;20086;-67
2021/09/01 13:49:45;;;;;;;7.72;2.50;;;;;;;;;;5112028;28;20024;-67
2021/09/01 13:52:11;;;;;;;5.57;2.13;;;;;;;;;;5112967;28;20028;-67
2021/09/01 13:54:37;;;;;;;4.78;2.05;;;;;;;;;;5112845;28;20023;-67
2021/09/01 13:57:05;;;;;;;3.97;2.33;;;;;;;;;;5113311;28;20144;-67
2021/09/01 13:59:32;;;;;;;3.70;2.40;;;;;;;;;;5113399;28;20388;-68
2021/09/01 14:01:58;;;;;;;5.75;2.42;;;;;;;;;;5112641;28;20031;-68
2021/09/01 14:04:25;;;;;;;4.53;2.53;;;;;;;;;;5096476;28;20499;-67
2021/09/01 14:06:51;;;;;;;3.95;2.05;;;;;;;;;;5095817;28;20480;-66
2021/09/01 14:09:17;;;;;;;3.25;2.17;;;;;;;;;;5096014;28;20033;-67
2021/09/01 14:11:44;;;;;;;5.05;2.92;;;;;;;;;;5096349;28;20085;-67
2021/09/01 14:14:11;;;;;;;9.70;3.67;;;;;;;;;;5096365;28;20024;-68
2021/09/01 14:16:37;;;;;;;6.95;3.28;;;;;;;;;;5096039;28;20044;-68
2021/09/01 14:19:04;;;;;;;5.80;2.78;;;;;;;;;;5095935;28;20105;-67
2021/09/01 14:21:31;;;;;;;6.22;2.72;;;;;;;;;;5095295;28;20024;-68
2021/09/01 14:23:58;;;;;;;4.80;2.70;;;;;;;;;;5095736;28;20020;-67
2021/09/01 14:26:24;;;;;;;5.68;2.67;;;;;;;;;;5094945;28;20020;-67
2021/09/01 14:28:50;;;;;;;3.63;2.10;;;;;;;;;;5096273;28;20031;-66
2021/09/01 14:31:17;;;;;;;4.03;2.30;;;;;;;;;;5090159;28;20057;-66
2021/09/01 14:33:43;;;;;;;3.95;2.72;;;;;;;;;;5095033;28;20099;-66
2021/09/01 14:36:09;;;;;;;4.43;2.55;;;;;;;;;;5096119;28;20426;-66
2021/09/01 14:38:36;;;;;;;3.33;2.10;;;;;;;;;;5095472;28;20073;-68
2021/09/01 14:41:02;;;;;;;5.97;2.40;;;;;;;;;;5094628;28;20031;-67
2021/09/01 14:43:29;;;;;;;3.50;2.08;;;;;;;;;;5094584;28;20517;-68
2021/09/01 14:45:57;;;;;;;4.78;2.45;;;;;;;;;;5092681;28;20046;-67
2021/09/01 14:48:23;;;;;;;3.03;2.15;;;;;;;;;;5093097;28;20036;-68
2021/09/01 14:50:50;;;;;;;3.92;2.25;;;;;;;;;;5103086;28;20020;-68
2021/09/01 14:53:16;;;;;;;8.32;2.40;;;;;;;;;;5089362;28;20073;-68
2021/09/01 14:55:42;;;;;;;4.32;2.70;;;;;;;;;;5104668;28;20410;-67
2021/09/01 14:58:09;;;;;;;5.97;2.33;;;;;;;;;;5106761;28;20020;-67
2021/09/01 15:00:35;;;;;;;5.38;2.97;;;;;;;;;;5095811;28;20028;-67
2021/09/01 15:03:01;;;;;;;4.60;2.33;;;;;;;;;;5095399;28;20020;-67
2021/09/01 15:05:28;;;;;;;5.30;2.20;;;;;;;;;;5089207;28;20553;-67
2021/09/01 15:07:54;;;;;;;5.90;2.60;;;;;;;;;;5095345;28;20032;-67
2021/09/01 15:10:21;;;;;;;3.42;2.30;;;;;;;;;;5093877;28;20031;-67
2021/09/01 15:12:47;;;;;;;2.75;1.80;;;;;;;;;;5093334;28;20551;-68
2021/09/01 15:15:14;;;;;;;3.75;2.30;;;;;;;;;;5095259;28;20095;-69
2021/09/01 15:17:47;;;;;;;3.78;2.53;;;;;;;;;;5096155;28;20473;-68
2021/09/01 15:20:17;;;;;;;4.30;2.72;;;;;;;;;;5094459;28;20048;-68
2021/09/01 15:22:43;;;;;;;3.45;2.20;;;;;;;;;;5095442;28;20027;-68
2021/09/01 15:25:12;;;;;;;3.47;2.38;;;;;;;;;;5109887;28;20402;-68
2021/09/01 15:27:38;;;;;;;4.18;2.50;;;;;;;;;;5105823;28;20020;-68
2021/09/01 15:30:05;;;;;;;2.95;2.10;;;;;;;;;;5094819;28;20487;-68
2021/09/01 15:32:32;;;;;;;3.15;2.08;;;;;;;;;;5095077;28;20061;-68
2021/09/01 15:34:58;;;;;;;3.80;2.08;;;;;;;;;;5094487;28;20024;-68
2021/09/01 15:37:24;;;;;;;3.08;2.08;;;;;;;;;;5094963;28;20028;-68
2021/09/01 15:39:50;;;;;;;3.50;1.88;;;;;;;;;;5094940;28;20144;-68
2021/09/01 15:42:20;;;;;;;3.40;1.92;;;;;;;;;;5092201;28;20028;-68
2021/09/01 15:44:56;;;;;;;3.15;1.73;;;;;;;;;;5093780;28;20031;-68
2021/09/01 15:47:26;;;;;;;2.40;1.13;;;;;;;;;;5093075;28;20027;-69
2021/09/01 15:49:55;;;;;;;1.88;1.42;;;;;;;;;;5094743;28;20028;-68
2021/09/01 15:52:21;;;;;;;2.42;1.45;;;;;;;;;;5094678;28;20099;-68
2021/09/01 15:54:49;;;;;;;6.93;2.95;;;;;;;;;;5094148;28;20103;-68
2021/09/01 15:57:16;;;;;;;2.22;1.45;;;;;;;;;;5094602;28;20024;-68
2021/09/01 15:59:46;;;;;;;3.00;1.67;;;;;;;;;;5094561;28;20419;-68
2021/09/01 16:02:12;;;;;;;3.95;2.00;;;;;;;;;;5094124;28;20380;-69
2021/09/01 16:04:42;;;;;;;2.65;1.55;;;;;;;;;;5093213;28;20024;-69
2021/09/01 16:07:08;;;;;;;2.75;1.88;;;;;;;;;;5094722;28;20110;-69